sensor_id;sensor_type;location;lat;lon;timestamp;pressure;altitude;pressure_sealevel;temperature;humidity
50682;BME280;36779;52.168;20.878;2023-10-19T00:01:17;100116.18;;;0.47;63.58
50682;BME280;36779;52.168;20.878;2023-10-19T00:03:46;100118.59;;;0.42;63.75
50682;BME280;36779;52.168;20.878;2023-10-19T00:06:17;100115.85;;;0.47;63.98
50682;BME280;36779;52.168;20.878;2023-10-19T00:08:46;100113.48;;;0.54;64.12
50682;BME280;36779;52.168;20.878;2023-10-19T00:11:15;100112.38;;;0.59;64.32
50682;BME280;36779;52.168;20.878;2023-10-19T00:13:52;100110.84;;;0.61;64.21
50682;BME280;36779;52.168;20.878;2023-10-19T00:16:23;100104.71;;;0.56;63.98
50682;BME280;36779;52.168;20.878;2023-10-19T00:18:57;100101.45;;;0.45;63.83
50682;BME280;36779;52.168;20.878;2023-10-19T00:21:30;100097.02;;;0.44;64.01
50682;BME280;36779;52.168;20.878;2023-10-19T00:24:18;100098.42;;;0.45;64.16
50682;BME280;36779;52.168;20.878;2023-10-19T00:26:47;100096.13;;;0.49;64.18
50682;BME280;36779;52.168;20.878;2023-10-19T00:29:16;100092.73;;;0.48;63.98
50682;BME280;36779;52.168;20.878;2023-10-19T00:31:59;100084.06;;;0.36;63.84
50682;BME280;36779;52.168;20.878;2023-10-19T00:34:29;100083.66;;;0.27;63.69
50682;BME280;36779;52.168;20.878;2023-10-19T00:37:02;100085.58;;;0.24;63.93
50682;BME280;36779;52.168;20.878;2023-10-19T00:39:36;100082.52;;;0.23;63.90
50682;BME280;36779;52.168;20.878;2023-10-19T00:42:16;100078.34;;;0.20;63.90
50682;BME280;36779;52.168;20.878;2023-10-19T00:44:51;100077.86;;;0.22;64.07
50682;BME280;36779;52.168;20.878;2023-10-19T00:47:30;100074.76;;;0.21;64.00
50682;BME280;36779;52.168;20.878;2023-10-19T00:50:09;100070.69;;;0.17;64.08
50682;BME280;36779;52.168;20.878;2023-10-19T00:52:44;100070.14;;;0.17;64.22
50682;BME280;36779;52.168;20.878;2023-10-19T00:55:20;100066.27;;;0.17;64.19
50682;BME280;36779;52.168;20.878;2023-10-19T00:57:50;100060.77;;;0.13;64.17
50682;BME280;36779;52.168;20.878;2023-10-19T01:00:22;100059.13;;;0.12;64.22
50682;BME280;36779;52.168;20.878;2023-10-19T01:02:58;100060.66;;;0.10;64.29
50682;BME280;36779;52.168;20.878;2023-10-19T01:05:30;100052.88;;;0.11;64.38
50682;BME280;36779;52.168;20.878;2023-10-19T01:08:07;100051.03;;;0.18;64.43
50682;BME280;36779;52.168;20.878;2023-10-19T01:10:52;100042.05;;;0.19;64.32
50682;BME280;36779;52.168;20.878;2023-10-19T01:13:22;100037.61;;;0.15;64.28
50682;BME280;36779;52.168;20.878;2023-10-19T01:15:56;100034.48;;;0.12;64.19
50682;BME280;36779;52.168;20.878;2023-10-19T01:18:27;100031.77;;;0.11;64.23
50682;BME280;36779;52.168;20.878;2023-10-19T01:20:57;100028.17;;;0.15;64.40
50682;BME280;36779;52.168;20.878;2023-10-19T01:23:30;100025.40;;;0.17;64.37
50682;BME280;36779;52.168;20.878;2023-10-19T01:26:00;100023.56;;;0.18;64.43
50682;BME280;36779;52.168;20.878;2023-10-19T01:28:31;100022.91;;;0.20;64.56
50682;BME280;36779;52.168;20.878;2023-10-19T01:31:13;100020.89;;;0.24;64.58
50682;BME280;36779;52.168;20.878;2023-10-19T01:33:46;100022.30;;;0.37;64.98
50682;BME280;36779;52.168;20.878;2023-10-19T01:36:15;100015.48;;;0.50;65.19
50682;BME280;36779;52.168;20.878;2023-10-19T01:38:45;100015.23;;;0.58;65.11
50682;BME280;36779;52.168;20.878;2023-10-19T01:41:16;100012.39;;;0.61;65.08
50682;BME280;36779;52.168;20.878;2023-10-19T01:43:48;100013.91;;;0.57;65.02
50682;BME280;36779;52.168;20.878;2023-10-19T01:46:18;100013.25;;;0.59;65.16
50682;BME280;36779;52.168;20.878;2023-10-19T01:48:53;100014.11;;;0.59;65.09
50682;BME280;36779;52.168;20.878;2023-10-19T01:51:24;100013.80;;;0.58;65.04
50682;BME280;36779;52.168;20.878;2023-10-19T01:53:55;100016.48;;;0.58;65.11
50682;BME280;36779;52.168;20.878;2023-10-19T01:56:25;100012.30;;;0.60;65.05
50682;BME280;36779;52.168;20.878;2023-10-19T01:58:54;100010.08;;;0.57;64.81
50682;BME280;36779;52.168;20.878;2023-10-19T02:01:26;100009.24;;;0.49;64.69
50682;BME280;36779;52.168;20.878;2023-10-19T02:04:00;100007.59;;;0.37;64.64
50682;BME280;36779;52.168;20.878;2023-10-19T02:06:33;100007.98;;;0.32;64.62
50682;BME280;36779;52.168;20.878;2023-10-19T02:09:09;100007.48;;;0.29;64.80
50682;BME280;36779;52.168;20.878;2023-10-19T02:11:46;100001.48;;;0.32;64.97
50682;BME280;36779;52.168;20.878;2023-10-19T02:14:17;99994.25;;;0.38;64.87
50682;BME280;36779;52.168;20.878;2023-10-19T02:16:50;99991.27;;;0.31;64.79
50682;BME280;36779;52.168;20.878;2023-10-19T02:19:22;99986.41;;;0.33;65.01
50682;BME280;36779;52.168;20.878;2023-10-19T02:21:52;99988.23;;;0.36;65.11
50682;BME280;36779;52.168;20.878;2023-10-19T02:24:22;99984.09;;;0.43;65.29
50682;BME280;36779;52.168;20.878;2023-10-19T02:26:52;99981.59;;;0.44;65.19
50682;BME280;36779;52.168;20.878;2023-10-19T02:29:23;99977.73;;;0.39;65.01
50682;BME280;36779;52.168;20.878;2023-10-19T02:31:56;99976.90;;;0.31;64.88
50682;BME280;36779;52.168;20.878;2023-10-19T02:34:26;99975.43;;;0.25;65.07
50682;BME280;36779;52.168;20.878;2023-10-19T02:36:55;99975.96;;;0.27;65.17
50682;BME280;36779;52.168;20.878;2023-10-19T02:39:24;99974.11;;;0.31;65.23
50682;BME280;36779;52.168;20.878;2023-10-19T02:41:56;99971.23;;;0.30;65.12
50682;BME280;36779;52.168;20.878;2023-10-19T02:44:30;99964.16;;;0.23;65.01
50682;BME280;36779;52.168;20.878;2023-10-19T02:47:00;99963.27;;;0.16;64.91
50682;BME280;36779;52.168;20.878;2023-10-19T02:49:35;99967.43;;;0.11;65.03
50682;BME280;36779;52.168;20.878;2023-10-19T02:52:06;99962.55;;;0.13;65.08
50682;BME280;36779;52.168;20.878;2023-10-19T02:54:35;99958.34;;;0.19;65.16
50682;BME280;36779;52.168;20.878;2023-10-19T02:57:07;99958.67;;;0.24;65.26
50682;BME280;36779;52.168;20.878;2023-10-19T02:59:40;99958.27;;;0.32;65.34
50682;BME280;36779;52.168;20.878;2023-10-19T03:02:09;99949.63;;;0.26;65.10
50682;BME280;36779;52.168;20.878;2023-10-19T03:04:45;99947.65;;;0.19;65.11
50682;BME280;36779;52.168;20.878;2023-10-19T03:07:15;99944.95;;;0.18;65.17
50682;BME280;36779;52.168;20.878;2023-10-19T03:09:45;99944.50;;;0.14;65.19
50682;BME280;36779;52.168;20.878;2023-10-19T03:12:19;99938.54;;;0.10;65.24
50682;BME280;36779;52.168;20.878;2023-10-19T03:14:48;99935.75;;;0.05;65.14
50682;BME280;36779;52.168;20.878;2023-10-19T03:17:17;99932.41;;;0.07;65.44
50682;BME280;36779;52.168;20.878;2023-10-19T03:19:47;99930.41;;;0.13;65.51
50682;BME280;36779;52.168;20.878;2023-10-19T03:22:17;99928.69;;;0.18;65.50
50682;BME280;36779;52.168;20.878;2023-10-19T03:24:48;99923.90;;;0.19;65.52
50682;BME280;36779;52.168;20.878;2023-10-19T03:27:27;99923.06;;;0.24;65.69
50682;BME280;36779;52.168;20.878;2023-10-19T03:29:55;99920.06;;;0.27;65.62
50682;BME280;36779;52.168;20.878;2023-10-19T03:32:26;99916.73;;;0.24;65.43
50682;BME280;36779;52.168;20.878;2023-10-19T03:34:55;99914.95;;;0.17;65.36
50682;BME280;36779;52.168;20.878;2023-10-19T03:37:26;99907.39;;;0.13;65.41
50682;BME280;36779;52.168;20.878;2023-10-19T03:39:57;99899.33;;;0.11;65.26
50682;BME280;36779;52.168;20.878;2023-10-19T03:42:26;99897.02;;;0.06;65.25
50682;BME280;36779;52.168;20.878;2023-10-19T03:45:00;99893.21;;;0.06;65.42
50682;BME280;36779;52.168;20.878;2023-10-19T03:47:36;99890.52;;;0.16;65.68
50682;BME280;36779;52.168;20.878;2023-10-19T03:50:09;99884.05;;;0.17;65.45
50682;BME280;36779;52.168;20.878;2023-10-19T03:52:43;99879.16;;;0.07;65.27
50682;BME280;36779;52.168;20.878;2023-10-19T03:55:13;99870.53;;;-0.02;65.37
50682;BME280;36779;52.168;20.878;2023-10-19T03:57:47;99865.58;;;-0.09;65.39
50682;BME280;36779;52.168;20.878;2023-10-19T04:00:19;99859.10;;;-0.11;65.55
50682;BME280;36779;52.168;20.878;2023-10-19T04:02:53;99858.52;;;-0.15;65.51
50682;BME280;36779;52.168;20.878;2023-10-19T04:05:24;99853.74;;;-0.14;65.72
50682;BME280;36779;52.168;20.878;2023-10-19T04:07:54;99854.21;;;-0.09;65.77
50682;BME280;36779;52.168;20.878;2023-10-19T04:10:25;99851.10;;;-0.06;65.74
50682;BME280;36779;52.168;20.878;2023-10-19T04:13:07;99844.01;;;-0.10;65.64
50682;BME280;36779;52.168;20.878;2023-10-19T04:15:44;99838.95;;;-0.13;65.72
50682;BME280;36779;52.168;20.878;2023-10-19T04:18:13;99832.96;;;-0.07;65.81
50682;BME280;36779;52.168;20.878;2023-10-19T04:20:45;99825.84;;;0.00;65.95
50682;BME280;36779;52.168;20.878;2023-10-19T04:23:25;99822.35;;;0.10;66.02
50682;BME280;36779;52.168;20.878;2023-10-19T04:25:55;99821.84;;;0.19;66.16
50682;BME280;36779;52.168;20.878;2023-10-19T04:28:26;99817.11;;;0.29;66.15
50682;BME280;36779;52.168;20.878;2023-10-19T04:31:07;99813.65;;;0.33;65.99
50682;BME280;36779;52.168;20.878;2023-10-19T04:33:41;99815.58;;;0.36;66.01
50682;BME280;36779;52.168;20.878;2023-10-19T04:36:17;99811.00;;;0.46;66.41
50682;BME280;36779;52.168;20.878;2023-10-19T04:38:50;99809.64;;;0.60;66.54
50682;BME280;36779;52.168;20.878;2023-10-19T04:41:19;99810.55;;;0.66;66.28
50682;BME280;36779;52.168;20.878;2023-10-19T04:43:51;99810.66;;;0.72;66.43
50682;BME280;36779;52.168;20.878;2023-10-19T04:46:20;99812.29;;;0.83;66.61
50682;BME280;36779;52.168;20.878;2023-10-19T04:48:49;99810.14;;;0.95;66.80
50682;BME280;36779;52.168;20.878;2023-10-19T04:51:18;99808.66;;;1.01;66.66
50682;BME280;36779;52.168;20.878;2023-10-19T04:53:47;99806.84;;;1.02;66.62
50682;BME280;36779;52.168;20.878;2023-10-19T04:56:18;99803.84;;;1.07;66.67
50682;BME280;36779;52.168;20.878;2023-10-19T04:58:47;99801.63;;;1.09;66.77
50682;BME280;36779;52.168;20.878;2023-10-19T05:01:16;99795.31;;;1.09;66.72
50682;BME280;36779;52.168;20.878;2023-10-19T05:03:46;99797.98;;;1.08;66.66
50682;BME280;36779;52.168;20.878;2023-10-19T05:06:15;99804.98;;;1.01;66.45
50682;BME280;36779;52.168;20.878;2023-10-19T05:08:46;99799.75;;;0.94;66.29
50682;BME280;36779;52.168;20.878;2023-10-19T05:11:15;99800.09;;;0.85;66.10
50682;BME280;36779;52.168;20.878;2023-10-19T05:13:44;99795.21;;;0.78;66.09
50682;BME280;36779;52.168;20.878;2023-10-19T05:16:13;99799.89;;;0.74;66.04
50682;BME280;36779;52.168;20.878;2023-10-19T05:18:43;99800.59;;;0.78;66.40
50682;BME280;36779;52.168;20.878;2023-10-19T05:21:12;99803.59;;;0.87;66.52
50682;BME280;36779;52.168;20.878;2023-10-19T05:23:41;99803.77;;;0.97;66.63
50682;BME280;36779;52.168;20.878;2023-10-19T05:26:10;99800.98;;;0.91;66.32
50682;BME280;36779;52.168;20.878;2023-10-19T05:28:40;99798.06;;;0.84;66.32
50682;BME280;36779;52.168;20.878;2023-10-19T05:31:11;99798.13;;;0.81;66.34
50682;BME280;36779;52.168;20.878;2023-10-19T05:33:41;99795.36;;;0.80;66.51
50682;BME280;36779;52.168;20.878;2023-10-19T05:36:10;99799.12;;;0.86;66.62
50682;BME280;36779;52.168;20.878;2023-10-19T05:38:40;99802.41;;;0.93;66.76
50682;BME280;36779;52.168;20.878;2023-10-19T05:41:08;99801.02;;;1.00;66.74
50682;BME280;36779;52.168;20.878;2023-10-19T05:43:39;99795.00;;;1.06;66.80
50682;BME280;36779;52.168;20.878;2023-10-19T05:46:08;99795.81;;;1.04;66.52
50682;BME280;36779;52.168;20.878;2023-10-19T05:48:36;99794.45;;;0.97;66.28
50682;BME280;36779;52.168;20.878;2023-10-19T05:51:05;99791.27;;;0.93;66.28
50682;BME280;36779;52.168;20.878;2023-10-19T05:53:34;99791.91;;;0.98;66.62
50682;BME280;36779;52.168;20.878;2023-10-19T05:56:04;99791.14;;;0.99;66.43
50682;BME280;36779;52.168;20.878;2023-10-19T05:58:34;99785.57;;;0.96;66.42
50682;BME280;36779;52.168;20.878;2023-10-19T06:01:07;99776.86;;;0.98;66.54
50682;BME280;36779;52.168;20.878;2023-10-19T06:03:36;99777.26;;;1.09;66.84
50682;BME280;36779;52.168;20.878;2023-10-19T06:06:07;99783.23;;;1.20;66.92
50682;BME280;36779;52.168;20.878;2023-10-19T06:08:36;99781.92;;;1.26;66.90
50682;BME280;36779;52.168;20.878;2023-10-19T06:11:05;99781.82;;;1.25;66.79
50682;BME280;36779;52.168;20.878;2023-10-19T06:13:39;99788.38;;;1.29;66.93
50682;BME280;36779;52.168;20.878;2023-10-19T06:16:07;99793.10;;;1.33;67.02
50682;BME280;36779;52.168;20.878;2023-10-19T06:18:36;99793.84;;;1.39;66.97
50682;BME280;36779;52.168;20.878;2023-10-19T06:21:06;99792.46;;;1.46;67.06
50682;BME280;36779;52.168;20.878;2023-10-19T06:23:36;99784.82;;;1.52;66.97
50682;BME280;36779;52.168;20.878;2023-10-19T06:26:10;99776.25;;;1.54;66.88
50682;BME280;36779;52.168;20.878;2023-10-19T06:28:40;99770.61;;;1.57;66.80
50682;BME280;36779;52.168;20.878;2023-10-19T06:31:11;99778.19;;;1.67;67.12
50682;BME280;36779;52.168;20.878;2023-10-19T06:33:42;99772.34;;;1.82;67.19
50682;BME280;36779;52.168;20.878;2023-10-19T06:36:11;99766.67;;;1.93;67.23
50682;BME280;36779;52.168;20.878;2023-10-19T06:38:40;99756.33;;;2.02;67.23
50682;BME280;36779;52.168;20.878;2023-10-19T06:41:13;99751.38;;;2.14;67.34
50682;BME280;36779;52.168;20.878;2023-10-19T06:43:43;99747.16;;;2.25;67.31
50682;BME280;36779;52.168;20.878;2023-10-19T06:46:12;99740.67;;;2.33;67.25
50682;BME280;36779;52.168;20.878;2023-10-19T06:48:42;99738.91;;;2.40;67.38
50682;BME280;36779;52.168;20.878;2023-10-19T06:51:11;99740.08;;;2.45;67.35
50682;BME280;36779;52.168;20.878;2023-10-19T06:53:43;99736.59;;;2.51;67.42
50682;BME280;36779;52.168;20.878;2023-10-19T06:56:12;99734.53;;;2.61;67.41
50682;BME280;36779;52.168;20.878;2023-10-19T06:58:41;99731.77;;;2.71;67.57
50682;BME280;36779;52.168;20.878;2023-10-19T07:01:10;99732.34;;;2.81;67.59
50682;BME280;36779;52.168;20.878;2023-10-19T07:03:40;99729.02;;;2.93;67.46
50682;BME280;36779;52.168;20.878;2023-10-19T07:06:10;99726.13;;;3.07;67.47
50682;BME280;36779;52.168;20.878;2023-10-19T07:08:43;99731.77;;;3.21;67.62
50682;BME280;36779;52.168;20.878;2023-10-19T07:11:11;99733.12;;;3.36;67.60
50682;BME280;36779;52.168;20.878;2023-10-19T07:13:41;99737.54;;;3.52;67.74
50682;BME280;36779;52.168;20.878;2023-10-19T07:16:12;99730.91;;;3.65;67.67
50682;BME280;36779;52.168;20.878;2023-10-19T07:18:41;99726.30;;;3.82;67.64
50682;BME280;36779;52.168;20.878;2023-10-19T07:21:11;99718.48;;;4.01;67.82
50682;BME280;36779;52.168;20.878;2023-10-19T07:23:40;99714.27;;;4.21;67.81
50682;BME280;36779;52.168;20.878;2023-10-19T07:26:09;99710.91;;;4.35;67.72
50682;BME280;36779;52.168;20.878;2023-10-19T07:28:42;99706.52;;;4.46;67.72
50682;BME280;36779;52.168;20.878;2023-10-19T07:31:11;99695.04;;;4.60;67.84
50682;BME280;36779;52.168;20.878;2023-10-19T07:33:43;99690.70;;;4.72;67.86
50682;BME280;36779;52.168;20.878;2023-10-19T07:36:14;99686.66;;;4.88;67.83
50682;BME280;36779;52.168;20.878;2023-10-19T07:38:43;99684.73;;;5.08;67.81
50682;BME280;36779;52.168;20.878;2023-10-19T07:41:14;99689.48;;;5.33;67.83
50682;BME280;36779;52.168;20.878;2023-10-19T07:43:42;99687.39;;;5.53;67.70
50682;BME280;36779;52.168;20.878;2023-10-19T07:46:12;99682.88;;;5.67;67.60
50682;BME280;36779;52.168;20.878;2023-10-19T07:48:41;99679.89;;;5.81;67.63
50682;BME280;36779;52.168;20.878;2023-10-19T07:51:10;99672.46;;;5.96;67.77
50682;BME280;36779;52.168;20.878;2023-10-19T07:53:39;99663.31;;;6.10;67.82
50682;BME280;36779;52.168;20.878;2023-10-19T07:56:09;99662.08;;;6.23;67.83
50682;BME280;36779;52.168;20.878;2023-10-19T07:58:38;99662.39;;;6.34;67.78
50682;BME280;36779;52.168;20.878;2023-10-19T08:01:09;99664.40;;;6.44;67.79
50682;BME280;36779;52.168;20.878;2023-10-19T08:03:39;99665.68;;;6.50;67.64
50682;BME280;36779;52.168;20.878;2023-10-19T08:06:10;99664.56;;;6.56;67.68
50682;BME280;36779;52.168;20.878;2023-10-19T08:08:39;99663.69;;;6.65;67.68
50682;BME280;36779;52.168;20.878;2023-10-19T08:11:08;99660.08;;;6.76;67.72
50682;BME280;36779;52.168;20.878;2023-10-19T08:13:37;99656.83;;;6.86;67.61
50682;BME280;36779;52.168;20.878;2023-10-19T08:16:08;99649.79;;;6.93;67.69
50682;BME280;36779;52.168;20.878;2023-10-19T08:18:38;99638.88;;;7.02;67.66
50682;BME280;36779;52.168;20.878;2023-10-19T08:21:07;99632.83;;;7.11;67.60
50682;BME280;36779;52.168;20.878;2023-10-19T08:23:36;99629.61;;;7.19;67.64
50682;BME280;36779;52.168;20.878;2023-10-19T08:26:06;99621.06;;;7.28;67.72
50682;BME280;36779;52.168;20.878;2023-10-19T08:28:35;99615.94;;;7.36;67.53
50682;BME280;36779;52.168;20.878;2023-10-19T08:31:09;99613.64;;;7.43;67.49
50682;BME280;36779;52.168;20.878;2023-10-19T08:33:38;99610.75;;;7.49;67.38
50682;BME280;36779;52.168;20.878;2023-10-19T08:36:18;99599.75;;;7.51;67.33
50682;BME280;36779;52.168;20.878;2023-10-19T08:38:48;99599.98;;;7.55;67.22
50682;BME280;36779;52.168;20.878;2023-10-19T08:41:17;99594.42;;;7.59;67.30
50682;BME280;36779;52.168;20.878;2023-10-19T08:43:46;99590.66;;;7.66;67.19
50682;BME280;36779;52.168;20.878;2023-10-19T08:46:17;99582.65;;;7.70;67.07
50682;BME280;36779;52.168;20.878;2023-10-19T08:48:46;99577.64;;;7.74;67.18
50682;BME280;36779;52.168;20.878;2023-10-19T08:51:16;99578.55;;;7.79;67.11
50682;BME280;36779;52.168;20.878;2023-10-19T08:53:46;99577.77;;;7.86;67.11
50682;BME280;36779;52.168;20.878;2023-10-19T08:56:17;99574.85;;;7.92;67.04
50682;BME280;36779;52.168;20.878;2023-10-19T08:58:46;99574.46;;;7.97;66.93
50682;BME280;36779;52.168;20.878;2023-10-19T09:01:17;99575.91;;;8.00;67.05
50682;BME280;36779;52.168;20.878;2023-10-19T09:03:47;99573.45;;;8.11;67.10
50682;BME280;36779;52.168;20.878;2023-10-19T09:06:17;99574.61;;;8.25;67.29
50682;BME280;36779;52.168;20.878;2023-10-19T09:08:48;99572.77;;;8.39;67.20
50682;BME280;36779;52.168;20.878;2023-10-19T09:11:17;99570.44;;;8.54;67.08
50682;BME280;36779;52.168;20.878;2023-10-19T09:13:50;99561.21;;;8.67;67.05
50682;BME280;36779;52.168;20.878;2023-10-19T09:16:21;99554.12;;;8.91;67.14
50682;BME280;36779;52.168;20.878;2023-10-19T09:18:52;99540.92;;;9.18;67.11
50682;BME280;36779;52.168;20.878;2023-10-19T09:21:21;99538.61;;;9.47;66.97
50682;BME280;36779;52.168;20.878;2023-10-19T09:23:53;99538.30;;;9.74;66.96
50682;BME280;36779;52.168;20.878;2023-10-19T09:26:24;99532.55;;;9.99;66.75
50682;BME280;36779;52.168;20.878;2023-10-19T09:28:53;99530.52;;;10.11;66.44
50682;BME280;36779;52.168;20.878;2023-10-19T09:31:23;99528.56;;;10.15;66.21
50682;BME280;36779;52.168;20.878;2023-10-19T09:33:53;99525.23;;;10.22;66.09
50682;BME280;36779;52.168;20.878;2023-10-19T09:36:26;99520.92;;;10.30;65.93
50682;BME280;36779;52.168;20.878;2023-10-19T09:38:57;99512.20;;;10.36;66.09
50682;BME280;36779;52.168;20.878;2023-10-19T09:41:27;99505.85;;;10.51;66.08
50682;BME280;36779;52.168;20.878;2023-10-19T09:44:01;99494.23;;;10.59;65.84
50682;BME280;36779;52.168;20.878;2023-10-19T09:46:33;99490.73;;;10.63;65.88
50682;BME280;36779;52.168;20.878;2023-10-19T09:49:07;99485.47;;;10.61;65.69
50682;BME280;36779;52.168;20.878;2023-10-19T12:14:21;99285.18;;;10.04;63.79
50682;BME280;36779;52.168;20.878;2023-10-19T12:16:50;99293.45;;;10.02;63.92
50682;BME280;36779;52.168;20.878;2023-10-19T12:19:19;99291.13;;;9.99;63.77
50682;BME280;36779;52.168;20.878;2023-10-19T12:21:48;99288.64;;;9.96;63.83
50682;BME280;36779;52.168;20.878;2023-10-19T12:24:18;99281.27;;;9.97;63.80
50682;BME280;36779;52.168;20.878;2023-10-19T12:26:48;99276.17;;;9.98;63.78
50682;BME280;36779;52.168;20.878;2023-10-19T12:29:18;99267.00;;;9.99;63.94
50682;BME280;36779;52.168;20.878;2023-10-19T12:31:49;99267.66;;;10.00;63.87
50682;BME280;36779;52.168;20.878;2023-10-19T12:34:18;99267.08;;;9.98;63.77
50682;BME280;36779;52.168;20.878;2023-10-19T12:36:46;99266.14;;;9.96;63.69
50682;BME280;36779;52.168;20.878;2023-10-19T12:39:15;99262.57;;;9.92;63.51
50682;BME280;36779;52.168;20.878;2023-10-19T12:42:04;99260.50;;;9.87;63.65
50682;BME280;36779;52.168;20.878;2023-10-19T12:44:34;99259.55;;;9.83;63.45
50682;BME280;36779;52.168;20.878;2023-10-19T12:47:07;99259.86;;;9.79;63.44
50682;BME280;36779;52.168;20.878;2023-10-19T12:49:41;99259.73;;;9.76;63.57
50682;BME280;36779;52.168;20.878;2023-10-19T12:52:10;99255.92;;;9.72;63.49
50682;BME280;36779;52.168;20.878;2023-10-19T12:54:39;99251.84;;;9.67;63.49
50682;BME280;36779;52.168;20.878;2023-10-19T12:57:12;99241.89;;;9.63;63.51
50682;BME280;36779;52.168;20.878;2023-10-19T12:59:40;99235.66;;;9.60;63.51
50682;BME280;36779;52.168;20.878;2023-10-19T13:02:12;99230.25;;;9.56;63.43
50682;BME280;36779;52.168;20.878;2023-10-19T13:04:43;99222.95;;;9.52;63.44
50682;BME280;36779;52.168;20.878;2023-10-19T13:07:15;99223.63;;;9.48;63.45
50682;BME280;36779;52.168;20.878;2023-10-19T13:09:44;99228.23;;;9.45;63.38
50682;BME280;36779;52.168;20.878;2023-10-19T13:12:12;99229.69;;;9.42;63.43
50682;BME280;36779;52.168;20.878;2023-10-19T13:14:41;99223.09;;;9.39;63.43
50682;BME280;36779;52.168;20.878;2023-10-19T13:17:12;99220.16;;;9.37;63.46
50682;BME280;36779;52.168;20.878;2023-10-19T13:19:41;99224.83;;;9.37;63.49
50682;BME280;36779;52.168;20.878;2023-10-19T13:22:10;99236.58;;;9.36;63.44
50682;BME280;36779;52.168;20.878;2023-10-19T13:24:39;99233.96;;;9.36;63.40
50682;BME280;36779;52.168;20.878;2023-10-19T13:27:10;99236.14;;;9.34;63.36
50682;BME280;36779;52.168;20.878;2023-10-19T13:29:38;99223.67;;;9.31;63.38
50682;BME280;36779;52.168;20.878;2023-10-19T13:32:09;99214.59;;;9.32;63.43
50682;BME280;36779;52.168;20.878;2023-10-19T13:34:39;99209.48;;;9.31;63.43
50682;BME280;36779;52.168;20.878;2023-10-19T13:37:08;99205.42;;;9.31;63.32
50682;BME280;36779;52.168;20.878;2023-10-19T13:39:37;99200.89;;;9.32;63.42
50682;BME280;36779;52.168;20.878;2023-10-19T13:42:07;99187.63;;;9.32;63.31
50682;BME280;36779;52.168;20.878;2023-10-19T13:44:37;99187.35;;;9.33;63.35
50682;BME280;36779;52.168;20.878;2023-10-19T13:47:05;99190.52;;;9.34;63.37
50682;BME280;36779;52.168;20.878;2023-10-19T13:49:37;99188.84;;;9.36;63.33
50682;BME280;36779;52.168;20.878;2023-10-19T13:52:06;99182.03;;;9.38;63.38
50682;BME280;36779;52.168;20.878;2023-10-19T13:54:37;99177.39;;;9.40;63.41
50682;BME280;36779;52.168;20.878;2023-10-19T13:57:06;99176.11;;;9.42;63.48
50682;BME280;36779;52.168;20.878;2023-10-19T13:59:35;99168.86;;;9.45;63.40
50682;BME280;36779;52.168;20.878;2023-10-19T14:02:05;99162.86;;;9.46;63.42
50682;BME280;36779;52.168;20.878;2023-10-19T14:04:36;99158.39;;;9.48;63.34
50682;BME280;36779;52.168;20.878;2023-10-19T14:07:05;99150.23;;;9.48;63.31
50682;BME280;36779;52.168;20.878;2023-10-19T14:09:34;99155.70;;;9.47;63.30
50682;BME280;36779;52.168;20.878;2023-10-19T14:12:04;99165.34;;;9.46;63.37
50682;BME280;36779;52.168;20.878;2023-10-19T14:14:33;99170.45;;;9.45;63.26
50682;BME280;36779;52.168;20.878;2023-10-19T14:17:02;99172.41;;;9.43;63.20
50682;BME280;36779;52.168;20.878;2023-10-19T14:19:31;99164.73;;;9.42;63.21
50682;BME280;36779;52.168;20.878;2023-10-19T14:22:02;99165.71;;;9.41;63.28
50682;BME280;36779;52.168;20.878;2023-10-19T14:24:31;99158.28;;;9.40;63.25
50682;BME280;36779;52.168;20.878;2023-10-19T14:27:00;99148.48;;;9.39;63.31
50682;BME280;36779;52.168;20.878;2023-10-19T14:29:29;99141.02;;;9.39;63.30
50682;BME280;36779;52.168;20.878;2023-10-19T14:31:57;99136.80;;;9.40;63.24
50682;BME280;36779;52.168;20.878;2023-10-19T14:34:26;99133.98;;;9.40;63.18
50682;BME280;36779;52.168;20.878;2023-10-19T14:36:55;99124.66;;;9.41;63.20
50682;BME280;36779;52.168;20.878;2023-10-19T14:39:24;99115.54;;;9.41;63.19
50682;BME280;36779;52.168;20.878;2023-10-19T14:41:53;99106.61;;;9.40;63.14
50682;BME280;36779;52.168;20.878;2023-10-19T14:44:21;99112.63;;;9.38;63.12
50682;BME280;36779;52.168;20.878;2023-10-19T14:46:50;99110.26;;;9.35;63.29
50682;BME280;36779;52.168;20.878;2023-10-19T14:49:19;99094.91;;;9.32;63.23
50682;BME280;36779;52.168;20.878;2023-10-19T14:51:49;99085.13;;;9.28;63.14
50682;BME280;36779;52.168;20.878;2023-10-19T14:54:17;99097.55;;;9.23;63.17
50682;BME280;36779;52.168;20.878;2023-10-19T14:56:46;99102.64;;;9.21;63.22
50682;BME280;36779;52.168;20.878;2023-10-19T14:59:17;99097.54;;;9.19;63.17
50682;BME280;36779;52.168;20.878;2023-10-19T15:01:46;99098.29;;;9.17;63.23
50682;BME280;36779;52.168;20.878;2023-10-19T15:04:16;99097.84;;;9.14;63.13
50682;BME280;36779;52.168;20.878;2023-10-19T15:06:44;99094.61;;;9.11;63.18
50682;BME280;36779;52.168;20.878;2023-10-19T15:09:13;99098.90;;;9.07;63.23
50682;BME280;36779;52.168;20.878;2023-10-19T15:11:49;99102.61;;;9.04;63.14
50682;BME280;36779;52.168;20.878;2023-10-19T15:14:18;99102.30;;;9.01;63.09
50682;BME280;36779;52.168;20.878;2023-10-19T15:16:46;99100.78;;;8.99;63.25
50682;BME280;36779;52.168;20.878;2023-10-19T15:19:15;99088.69;;;8.97;63.22
50682;BME280;36779;52.168;20.878;2023-10-19T15:21:46;99068.26;;;8.94;63.10
50682;BME280;36779;52.168;20.878;2023-10-19T15:24:15;99071.50;;;8.92;63.18
50682;BME280;36779;52.168;20.878;2023-10-19T15:26:44;99080.72;;;8.90;63.25
50682;BME280;36779;52.168;20.878;2023-10-19T15:29:13;99092.77;;;8.90;63.10
50682;BME280;36779;52.168;20.878;2023-10-19T15:31:42;99092.61;;;8.90;63.16
50682;BME280;36779;52.168;20.878;2023-10-19T15:34:11;99094.49;;;8.91;63.31
50682;BME280;36779;52.168;20.878;2023-10-19T15:36:41;99095.92;;;8.91;63.09
50682;BME280;36779;52.168;20.878;2023-10-19T15:39:10;99097.89;;;8.91;63.09